sensor_id;sensor_type;location;lat;lon;timestamp;temperature;humidity
67279;DHT22;54193;53.746;10.058;2023-09-30T00:01:22;11.77;94.73
67279;DHT22;54193;53.746;10.058;2023-09-30T00:04:08;11.81;94.76
67279;DHT22;54193;53.746;10.058;2023-09-30T00:06:54;11.78;94.86
67279;DHT22;54193;53.746;10.058;2023-09-30T00:09:40;11.74;94.99
67279;DHT22;54193;53.746;10.058;2023-09-30T00:12:26;11.73;95.07
67279;DHT22;54193;53.746;10.058;2023-09-30T00:15:12;11.75;95.08
67279;DHT22;54193;53.746;10.058;2023-09-30T00:17:58;11.81;95.02
67279;DHT22;54193;53.746;10.058;2023-09-30T00:20:43;11.86;95.25
67279;DHT22;54193;53.746;10.058;2023-09-30T00:23:29;11.85;95.14
67279;DHT22;54193;53.746;10.058;2023-09-30T00:26:14;11.82;95.11
67279;DHT22;54193;53.746;10.058;2023-09-30T00:29:00;11.77;95.24
67279;DHT22;54193;53.746;10.058;2023-09-30T00:31:49;11.82;95.23
67279;DHT22;54193;53.746;10.058;2023-09-30T00:34:35;11.88;94.90
67279;DHT22;54193;53.746;10.058;2023-09-30T00:37:21;11.88;95.28
67279;DHT22;54193;53.746;10.058;2023-09-30T00:40:07;11.91;95.00
67279;DHT22;54193;53.746;10.058;2023-09-30T00:42:58;11.82;94.97
67279;DHT22;54193;53.746;10.058;2023-09-30T00:45:43;11.82;94.95
67279;DHT22;54193;53.746;10.058;2023-09-30T00:48:29;11.75;95.09
67279;DHT22;54193;53.746;10.058;2023-09-30T00:51:15;11.78;95.19
67279;DHT22;54193;53.746;10.058;2023-09-30T00:54:01;11.73;95.23
67279;DHT22;54193;53.746;10.058;2023-09-30T00:56:49;11.70;95.28
67279;DHT22;54193;53.746;10.058;2023-09-30T00:59:35;11.70;95.28
67279;DHT22;54193;53.746;10.058;2023-09-30T01:02:21;11.79;95.16
67279;DHT22;54193;53.746;10.058;2023-09-30T01:05:08;11.71;95.30
67279;DHT22;54193;53.746;10.058;2023-09-30T01:07:54;11.67;95.37
67279;DHT22;54193;53.746;10.058;2023-09-30T01:10:40;11.70;95.33
67279;DHT22;54193;53.746;10.058;2023-09-30T01:13:38;11.65;95.44
67279;DHT22;54193;53.746;10.058;2023-09-30T01:16:23;11.71;95.46
67279;DHT22;54193;53.746;10.058;2023-09-30T01:19:09;11.73;95.44
67279;DHT22;54193;53.746;10.058;2023-09-30T01:21:56;11.79;95.55
67279;DHT22;54193;53.746;10.058;2023-09-30T01:24:44;11.86;95.52
67279;DHT22;54193;53.746;10.058;2023-09-30T01:27:32;11.92;95.58
67279;DHT22;54193;53.746;10.058;2023-09-30T01:30:18;11.95;95.21
67279;DHT22;54193;53.746;10.058;2023-09-30T01:33:05;11.85;95.26
67279;DHT22;54193;53.746;10.058;2023-09-30T01:35:51;11.94;95.32
67279;DHT22;54193;53.746;10.058;2023-09-30T01:38:36;12.02;95.31
67279;DHT22;54193;53.746;10.058;2023-09-30T01:41:22;12.15;95.28
67279;DHT22;54193;53.746;10.058;2023-09-30T01:44:08;12.16;95.08
67279;DHT22;54193;53.746;10.058;2023-09-30T01:46:54;12.18;94.96
67279;DHT22;54193;53.746;10.058;2023-09-30T01:49:40;12.18;94.88
67279;DHT22;54193;53.746;10.058;2023-09-30T01:52:25;12.09;94.81
67279;DHT22;54193;53.746;10.058;2023-09-30T01:55:11;11.98;94.72
67279;DHT22;54193;53.746;10.058;2023-09-30T01:57:57;11.91;94.77
67279;DHT22;54193;53.746;10.058;2023-09-30T02:00:43;11.95;94.93
67279;DHT22;54193;53.746;10.058;2023-09-30T02:03:28;11.92;94.70
67279;DHT22;54193;53.746;10.058;2023-09-30T02:06:14;11.81;94.92
67279;DHT22;54193;53.746;10.058;2023-09-30T02:09:00;11.73;95.05
67279;DHT22;54193;53.746;10.058;2023-09-30T02:11:46;11.73;94.95
67279;DHT22;54193;53.746;10.058;2023-09-30T02:14:31;11.70;94.92
67279;DHT22;54193;53.746;10.058;2023-09-30T02:17:17;11.67;95.23
67279;DHT22;54193;53.746;10.058;2023-09-30T02:20:03;11.60;95.04
67279;DHT22;54193;53.746;10.058;2023-09-30T02:22:52;11.57;95.15
67279;DHT22;54193;53.746;10.058;2023-09-30T02:25:39;11.56;95.20
67279;DHT22;54193;53.746;10.058;2023-09-30T02:28:25;11.56;95.14
67279;DHT22;54193;53.746;10.058;2023-09-30T02:31:11;11.54;95.18
67279;DHT22;54193;53.746;10.058;2023-09-30T02:33:57;11.54;95.22
67279;DHT22;54193;53.746;10.058;2023-09-30T02:36:43;11.53;95.32
67279;DHT22;54193;53.746;10.058;2023-09-30T02:39:29;11.50;95.23
67279;DHT22;54193;53.746;10.058;2023-09-30T02:42:14;11.43;95.31
67279;DHT22;54193;53.746;10.058;2023-09-30T02:45:00;11.40;95.38
67279;DHT22;54193;53.746;10.058;2023-09-30T02:47:49;11.34;95.45
67279;DHT22;54193;53.746;10.058;2023-09-30T02:50:35;11.36;95.35
67279;DHT22;54193;53.746;10.058;2023-09-30T02:53:20;11.33;95.44
67279;DHT22;54193;53.746;10.058;2023-09-30T02:56:06;11.36;95.43
67279;DHT22;54193;53.746;10.058;2023-09-30T02:58:52;11.33;95.42
67279;DHT22;54193;53.746;10.058;2023-09-30T03:01:38;11.34;95.46
67279;DHT22;54193;53.746;10.058;2023-09-30T03:04:23;11.31;95.51
67279;DHT22;54193;53.746;10.058;2023-09-30T03:07:11;11.34;95.70
67279;DHT22;54193;53.746;10.058;2023-09-30T03:09:57;11.41;95.63
67279;DHT22;54193;53.746;10.058;2023-09-30T03:12:44;11.37;95.58
67279;DHT22;54193;53.746;10.058;2023-09-30T03:15:30;11.44;95.58
67279;DHT22;54193;53.746;10.058;2023-09-30T03:18:16;11.38;95.52
67279;DHT22;54193;53.746;10.058;2023-09-30T03:21:13;11.37;95.68
67279;DHT22;54193;53.746;10.058;2023-09-30T03:23:59;11.30;95.68
67279;DHT22;54193;53.746;10.058;2023-09-30T03:26:45;11.29;95.69
67279;DHT22;54193;53.746;10.058;2023-09-30T03:29:30;11.27;95.53
67279;DHT22;54193;53.746;10.058;2023-09-30T03:32:16;11.36;95.75
67279;DHT22;54193;53.746;10.058;2023-09-30T03:35:02;11.40;95.68
67279;DHT22;54193;53.746;10.058;2023-09-30T03:37:51;11.31;95.80
67279;DHT22;54193;53.746;10.058;2023-09-30T03:40:36;11.31;95.63
67279;DHT22;54193;53.746;10.058;2023-09-30T03:43:25;11.36;95.72
67279;DHT22;54193;53.746;10.058;2023-09-30T03:46:10;11.36;95.74
67279;DHT22;54193;53.746;10.058;2023-09-30T03:48:57;11.44;95.73
67279;DHT22;54193;53.746;10.058;2023-09-30T03:51:44;11.44;95.76
67279;DHT22;54193;53.746;10.058;2023-09-30T03:54:30;11.37;95.73
67279;DHT22;54193;53.746;10.058;2023-09-30T03:57:16;11.43;95.66
67279;DHT22;54193;53.746;10.058;2023-09-30T04:00:03;11.40;95.70
67279;DHT22;54193;53.746;10.058;2023-09-30T04:02:52;11.31;95.64
67279;DHT22;54193;53.746;10.058;2023-09-30T04:05:43;11.34;95.70
67279;DHT22;54193;53.746;10.058;2023-09-30T04:08:29;11.27;95.82
67279;DHT22;54193;53.746;10.058;2023-09-30T04:11:15;11.24;95.76
67279;DHT22;54193;53.746;10.058;2023-09-30T04:14:07;11.26;95.72
67279;DHT22;54193;53.746;10.058;2023-09-30T04:16:53;11.20;95.77
67279;DHT22;54193;53.746;10.058;2023-09-30T04:19:39;11.15;95.78
67279;DHT22;54193;53.746;10.058;2023-09-30T04:22:25;11.15;95.91
67279;DHT22;54193;53.746;10.058;2023-09-30T04:25:14;11.16;95.90
67279;DHT22;54193;53.746;10.058;2023-09-30T04:28:01;11.15;95.86
67279;DHT22;54193;53.746;10.058;2023-09-30T04:30:48;11.13;95.79
67279;DHT22;54193;53.746;10.058;2023-09-30T04:33:34;11.12;95.96
67279;DHT22;54193;53.746;10.058;2023-09-30T04:36:21;11.12;96.04
67279;DHT22;54193;53.746;10.058;2023-09-30T04:39:08;11.10;95.95
67279;DHT22;54193;53.746;10.058;2023-09-30T04:41:54;11.12;96.04
67279;DHT22;54193;53.746;10.058;2023-09-30T04:44:40;11.15;95.93
67279;DHT22;54193;53.746;10.058;2023-09-30T04:47:27;11.13;95.94
67279;DHT22;54193;53.746;10.058;2023-09-30T04:50:12;11.19;95.89
67279;DHT22;54193;53.746;10.058;2023-09-30T04:53:01;11.23;95.96
67279;DHT22;54193;53.746;10.058;2023-09-30T04:55:47;11.20;96.10
67279;DHT22;54193;53.746;10.058;2023-09-30T04:58:35;11.26;95.99
67279;DHT22;54193;53.746;10.058;2023-09-30T05:01:21;11.31;95.91
67279;DHT22;54193;53.746;10.058;2023-09-30T05:04:06;11.33;96.10
67279;DHT22;54193;53.746;10.058;2023-09-30T05:06:52;11.37;96.05
67279;DHT22;54193;53.746;10.058;2023-09-30T05:09:37;11.36;95.98
67279;DHT22;54193;53.746;10.058;2023-09-30T05:12:23;11.33;96.00
67279;DHT22;54193;53.746;10.058;2023-09-30T05:15:09;11.36;95.81
67279;DHT22;54193;53.746;10.058;2023-09-30T05:17:56;11.34;95.79
67279;DHT22;54193;53.746;10.058;2023-09-30T05:20:41;11.34;95.81
67279;DHT22;54193;53.746;10.058;2023-09-30T05:23:27;11.43;95.81
67279;DHT22;54193;53.746;10.058;2023-09-30T05:26:13;11.46;95.87
67279;DHT22;54193;53.746;10.058;2023-09-30T05:28:58;11.50;95.75
67279;DHT22;54193;53.746;10.058;2023-09-30T05:31:45;11.48;95.61
67279;DHT22;54193;53.746;10.058;2023-09-30T05:34:30;11.51;95.52
67279;DHT22;54193;53.746;10.058;2023-09-30T05:37:16;11.51;95.65
67279;DHT22;54193;53.746;10.058;2023-09-30T05:40:01;11.51;95.52
67279;DHT22;54193;53.746;10.058;2023-09-30T05:42:54;11.54;95.37
67279;DHT22;54193;53.746;10.058;2023-09-30T05:45:40;11.48;95.42
67279;DHT22;54193;53.746;10.058;2023-09-30T05:48:34;11.57;95.45
67279;DHT22;54193;53.746;10.058;2023-09-30T05:51:20;11.57;95.17
67279;DHT22;54193;53.746;10.058;2023-09-30T05:54:06;11.64;95.29
67279;DHT22;54193;53.746;10.058;2023-09-30T05:56:53;11.61;95.13
67279;DHT22;54193;53.746;10.058;2023-09-30T05:59:38;11.63;95.12
67279;DHT22;54193;53.746;10.058;2023-09-30T06:02:24;11.65;95.02
67279;DHT22;54193;53.746;10.058;2023-09-30T06:05:10;11.68;94.92
67279;DHT22;54193;53.746;10.058;2023-09-30T06:07:56;11.68;94.94
67279;DHT22;54193;53.746;10.058;2023-09-30T06:10:42;11.70;94.93
67279;DHT22;54193;53.746;10.058;2023-09-30T06:13:28;11.71;94.98
67279;DHT22;54193;53.746;10.058;2023-09-30T06:16:16;11.77;94.82
67279;DHT22;54193;53.746;10.058;2023-09-30T06:19:03;11.86;94.78
67279;DHT22;54193;53.746;10.058;2023-09-30T06:21:49;11.86;94.62
67279;DHT22;54193;53.746;10.058;2023-09-30T06:24:35;11.95;94.70
67279;DHT22;54193;53.746;10.058;2023-09-30T06:27:22;11.91;94.45
67279;DHT22;54193;53.746;10.058;2023-09-30T06:30:08;11.91;94.46
67279;DHT22;54193;53.746;10.058;2023-09-30T06:32:54;11.94;94.39
67279;DHT22;54193;53.746;10.058;2023-09-30T06:35:41;11.99;94.44
67279;DHT22;54193;53.746;10.058;2023-09-30T06:38:36;11.94;94.38
67279;DHT22;54193;53.746;10.058;2023-09-30T06:41:22;12.02;94.59
67279;DHT22;54193;53.746;10.058;2023-09-30T06:44:08;11.96;94.38
67279;DHT22;54193;53.746;10.058;2023-09-30T06:46:54;12.03;94.48
67279;DHT22;54193;53.746;10.058;2023-09-30T06:49:40;12.06;94.29
67279;DHT22;54193;53.746;10.058;2023-09-30T06:52:26;12.13;94.27
67279;DHT22;54193;53.746;10.058;2023-09-30T06:55:13;12.15;94.05
67279;DHT22;54193;53.746;10.058;2023-09-30T06:58:05;12.26;94.18
67279;DHT22;54193;53.746;10.058;2023-09-30T07:00:52;12.29;94.16
67279;DHT22;54193;53.746;10.058;2023-09-30T07:03:41;12.33;93.67
67279;DHT22;54193;53.746;10.058;2023-09-30T07:06:27;12.56;93.98
67279;DHT22;54193;53.746;10.058;2023-09-30T07:09:13;12.70;93.84
67279;DHT22;54193;53.746;10.058;2023-09-30T07:11:58;12.83;93.30
67279;DHT22;54193;53.746;10.058;2023-09-30T07:14:45;12.87;93.27
67279;DHT22;54193;53.746;10.058;2023-09-30T07:17:34;12.88;92.82
67279;DHT22;54193;53.746;10.058;2023-09-30T07:20:22;12.98;92.79
67279;DHT22;54193;53.746;10.058;2023-09-30T07:23:08;13.22;92.55
67279;DHT22;54193;53.746;10.058;2023-09-30T07:25:54;13.18;92.46
67279;DHT22;54193;53.746;10.058;2023-09-30T07:28:40;13.40;92.44
67279;DHT22;54193;53.746;10.058;2023-09-30T07:31:26;13.56;91.85
67279;DHT22;54193;53.746;10.058;2023-09-30T07:34:11;13.69;90.55
67279;DHT22;54193;53.746;10.058;2023-09-30T07:36:57;13.77;90.58
67279;DHT22;54193;53.746;10.058;2023-09-30T07:39:43;13.85;90.00
67279;DHT22;54193;53.746;10.058;2023-09-30T07:42:28;13.94;89.78
67279;DHT22;54193;53.746;10.058;2023-09-30T07:45:15;14.09;89.38
67279;DHT22;54193;53.746;10.058;2023-09-30T07:48:02;14.28;88.83
67279;DHT22;54193;53.746;10.058;2023-09-30T07:50:50;14.46;89.16
67279;DHT22;54193;53.746;10.058;2023-09-30T07:53:36;14.63;88.18
67279;DHT22;54193;53.746;10.058;2023-09-30T07:56:22;14.53;87.98
67279;DHT22;54193;53.746;10.058;2023-09-30T07:59:07;14.50;88.40
67279;DHT22;54193;53.746;10.058;2023-09-30T08:01:53;14.67;88.06
67279;DHT22;54193;53.746;10.058;2023-09-30T08:04:39;15.00;87.95
67279;DHT22;54193;53.746;10.058;2023-09-30T08:07:24;15.04;86.86
67279;DHT22;54193;53.746;10.058;2023-09-30T08:10:10;15.25;86.19
67279;DHT22;54193;53.746;10.058;2023-09-30T08:12:58;15.17;86.13
67279;DHT22;54193;53.746;10.058;2023-09-30T08:15:47;15.49;86.11
67279;DHT22;54193;53.746;10.058;2023-09-30T08:18:33;15.74;84.73
67279;DHT22;54193;53.746;10.058;2023-09-30T08:21:19;15.52;86.21
67279;DHT22;54193;53.746;10.058;2023-09-30T08:24:05;15.74;84.95
67279;DHT22;54193;53.746;10.058;2023-09-30T08:26:52;15.77;84.79
67279;DHT22;54193;53.746;10.058;2023-09-30T08:29:38;16.08;84.32
67279;DHT22;54193;53.746;10.058;2023-09-30T08:32:24;15.84;85.02
67279;DHT22;54193;53.746;10.058;2023-09-30T08:35:10;15.76;84.59
67279;DHT22;54193;53.746;10.058;2023-09-30T08:37:56;15.96;84.15
67279;DHT22;54193;53.746;10.058;2023-09-30T08:40:44;16.11;83.32
67279;DHT22;54193;53.746;10.058;2023-09-30T08:43:30;16.11;83.87
67279;DHT22;54193;53.746;10.058;2023-09-30T08:46:18;16.39;84.02
67279;DHT22;54193;53.746;10.058;2023-09-30T08:49:04;16.28;82.68
67279;DHT22;54193;53.746;10.058;2023-09-30T08:51:51;16.48;82.43
67279;DHT22;54193;53.746;10.058;2023-09-30T08:54:37;16.80;81.93
67279;DHT22;54193;53.746;10.058;2023-09-30T08:57:24;16.86;82.76
67279;DHT22;54193;53.746;10.058;2023-09-30T09:00:12;16.75;81.59
67279;DHT22;54193;53.746;10.058;2023-09-30T09:02:58;16.86;81.31
67279;DHT22;54193;53.746;10.058;2023-09-30T09:05:44;16.94;81.19
67279;DHT22;54193;53.746;10.058;2023-09-30T09:08:30;16.96;81.34
67279;DHT22;54193;53.746;10.058;2023-09-30T09:11:15;17.03;80.94
67279;DHT22;54193;53.746;10.058;2023-09-30T09:14:01;17.46;82.52
67279;DHT22;54193;53.746;10.058;2023-09-30T09:16:54;17.59;79.60
67279;DHT22;54193;53.746;10.058;2023-09-30T09:19:40;17.66;78.62
67279;DHT22;54193;53.746;10.058;2023-09-30T09:22:40;17.35;79.17
67279;DHT22;54193;53.746;10.058;2023-09-30T09:25:26;17.56;79.40
67279;DHT22;54193;53.746;10.058;2023-09-30T09:28:15;17.79;79.02
67279;DHT22;54193;53.746;10.058;2023-09-30T09:31:00;17.94;79.28
67279;DHT22;54193;53.746;10.058;2023-09-30T09:33:46;18.23;77.31
67279;DHT22;54193;53.746;10.058;2023-09-30T09:36:40;17.89;77.35
67279;DHT22;54193;53.746;10.058;2023-09-30T09:39:29;17.82;77.40
67279;DHT22;54193;53.746;10.058;2023-09-30T09:42:31;18.04;77.31
67279;DHT22;54193;53.746;10.058;2023-09-30T09:45:17;17.79;77.28
67279;DHT22;54193;53.746;10.058;2023-09-30T09:48:04;17.69;78.31
67279;DHT22;54193;53.746;10.058;2023-09-30T09:50:50;17.80;77.71
67279;DHT22;54193;53.746;10.058;2023-09-30T09:53:37;17.89;77.46
67279;DHT22;54193;53.746;10.058;2023-09-30T09:56:23;17.48;78.17
67279;DHT22;54193;53.746;10.058;2023-09-30T09:59:11;17.66;79.26
67279;DHT22;54193;53.746;10.058;2023-09-30T10:01:58;17.71;79.88
67279;DHT22;54193;53.746;10.058;2023-09-30T10:04:45;17.63;79.81
67279;DHT22;54193;53.746;10.058;2023-09-30T10:07:35;17.62;77.68
67279;DHT22;54193;53.746;10.058;2023-09-30T10:10:23;17.66;78.67
67279;DHT22;54193;53.746;10.058;2023-09-30T10:19:23;17.85;78.05
67279;DHT22;54193;53.746;10.058;2023-09-30T10:25:32;17.68;77.74
67279;DHT22;54193;53.746;10.058;2023-09-30T10:28:41;17.68;77.91
67279;DHT22;54193;53.746;10.058;2023-09-30T10:31:27;17.69;78.66
67279;DHT22;54193;53.746;10.058;2023-09-30T10:34:19;17.80;77.21
67279;DHT22;54193;53.746;10.058;2023-09-30T10:37:23;17.49;76.91
67279;DHT22;54193;53.746;10.058;2023-09-30T10:40:27;17.53;77.15
67279;DHT22;54193;53.746;10.058;2023-09-30T10:43:30;17.73;76.22
67279;DHT22;54193;53.746;10.058;2023-09-30T10:49:36;17.36;78.41
67279;DHT22;54193;53.746;10.058;2023-09-30T10:52:25;17.59;77.09
67279;DHT22;54193;53.746;10.058;2023-09-30T10:55:11;17.83;77.20
67279;DHT22;54193;53.746;10.058;2023-09-30T10:58:03;17.76;76.98
67279;DHT22;54193;53.746;10.058;2023-09-30T11:00:53;17.91;75.73
67279;DHT22;54193;53.746;10.058;2023-09-30T11:03:43;18.14;75.89
67279;DHT22;54193;53.746;10.058;2023-09-30T11:06:28;17.87;75.64
67279;DHT22;54193;53.746;10.058;2023-09-30T11:09:19;17.85;75.35
67279;DHT22;54193;53.746;10.058;2023-09-30T11:12:13;18.13;74.34
67279;DHT22;54193;53.746;10.058;2023-09-30T11:15:01;18.38;73.77
67279;DHT22;54193;53.746;10.058;2023-09-30T11:17:47;18.55;74.65
67279;DHT22;54193;53.746;10.058;2023-09-30T11:20:32;18.64;72.94
67279;DHT22;54193;53.746;10.058;2023-09-30T11:23:18;18.71;73.67
67279;DHT22;54193;53.746;10.058;2023-09-30T11:26:04;18.40;73.81
67279;DHT22;54193;53.746;10.058;2023-09-30T11:28:50;18.23;72.22
67279;DHT22;54193;53.746;10.058;2023-09-30T11:31:43;18.14;73.45
67279;DHT22;54193;53.746;10.058;2023-09-30T11:34:34;18.07;73.69
67279;DHT22;54193;53.746;10.058;2023-09-30T11:37:20;18.38;71.99
67279;DHT22;54193;53.746;10.058;2023-09-30T11:40:14;18.55;71.54
67279;DHT22;54193;53.746;10.058;2023-09-30T11:43:07;18.69;71.59
67279;DHT22;54193;53.746;10.058;2023-09-30T11:45:52;19.03;72.69
67279;DHT22;54193;53.746;10.058;2023-09-30T11:48:38;18.81;71.18
67279;DHT22;54193;53.746;10.058;2023-09-30T11:51:26;18.58;71.77
67279;DHT22;54193;53.746;10.058;2023-09-30T11:54:13;18.56;71.60
67279;DHT22;54193;53.746;10.058;2023-09-30T11:57:00;18.44;71.87
67279;DHT22;54193;53.746;10.058;2023-09-30T11:59:47;18.20;72.40
67279;DHT22;54193;53.746;10.058;2023-09-30T12:02:33;18.43;73.21
67279;DHT22;54193;53.746;10.058;2023-09-30T12:05:20;18.37;71.18
67279;DHT22;54193;53.746;10.058;2023-09-30T12:08:07;18.35;70.83
67279;DHT22;54193;53.746;10.058;2023-09-30T12:10:53;18.20;71.49
67279;DHT22;54193;53.746;10.058;2023-09-30T12:13:39;18.13;71.77
67279;DHT22;54193;53.746;10.058;2023-09-30T12:16:24;17.96;70.16
67279;DHT22;54193;53.746;10.058;2023-09-30T12:19:10;17.82;70.39
67279;DHT22;54193;53.746;10.058;2023-09-30T12:21:56;17.83;70.14
67279;DHT22;54193;53.746;10.058;2023-09-30T12:24:41;18.11;70.49
67279;DHT22;54193;53.746;10.058;2023-09-30T12:27:27;18.30;70.65
67279;DHT22;54193;53.746;10.058;2023-09-30T12:30:13;18.11;70.83
67279;DHT22;54193;53.746;10.058;2023-09-30T12:32:59;17.94;71.01
67279;DHT22;54193;53.746;10.058;2023-09-30T12:35:45;17.91;71.65
67279;DHT22;54193;53.746;10.058;2023-09-30T12:38:30;17.91;70.66
67279;DHT22;54193;53.746;10.058;2023-09-30T12:41:16;17.97;70.86
67279;DHT22;54193;53.746;10.058;2023-09-30T12:44:04;18.06;70.87
67279;DHT22;54193;53.746;10.058;2023-09-30T12:46:50;18.27;71.13
67279;DHT22;54193;53.746;10.058;2023-09-30T12:49:36;18.30;70.88
67279;DHT22;54193;53.746;10.058;2023-09-30T12:52:22;18.14;71.42
67279;DHT22;54193;53.746;10.058;2023-09-30T12:55:09;17.93;71.85
67279;DHT22;54193;53.746;10.058;2023-09-30T12:57:56;17.83;71.70
67279;DHT22;54193;53.746;10.058;2023-09-30T13:00:41;17.71;72.12
67279;DHT22;54193;53.746;10.058;2023-09-30T13:03:27;17.71;73.12
67279;DHT22;54193;53.746;10.058;2023-09-30T13:06:13;17.62;73.21
67279;DHT22;54193;53.746;10.058;2023-09-30T13:08:59;17.59;73.77
67279;DHT22;54193;53.746;10.058;2023-09-30T13:11:45;17.51;73.85
67279;DHT22;54193;53.746;10.058;2023-09-30T13:14:30;17.58;73.66
67279;DHT22;54193;53.746;10.058;2023-09-30T13:17:16;17.48;73.94
67279;DHT22;54193;53.746;10.058;2023-09-30T13:20:02;17.48;74.15
67279;DHT22;54193;53.746;10.058;2023-09-30T13:22:50;17.55;75.09
67279;DHT22;54193;53.746;10.058;2023-09-30T13:25:36;17.66;73.68
67279;DHT22;54193;53.746;10.058;2023-09-30T13:28:21;17.71;74.68
67279;DHT22;54193;53.746;10.058;2023-09-30T13:31:07;17.68;74.25
67279;DHT22;54193;53.746;10.058;2023-09-30T13:33:53;17.78;74.39
67279;DHT22;54193;53.746;10.058;2023-09-30T13:36:38;17.75;73.91
67279;DHT22;54193;53.746;10.058;2023-09-30T13:39:24;17.76;73.79
67279;DHT22;54193;53.746;10.058;2023-09-30T13:42:10;17.75;74.70
67279;DHT22;54193;53.746;10.058;2023-09-30T13:44:56;17.75;75.65
67279;DHT22;54193;53.746;10.058;2023-09-30T13:47:45;17.62;73.65
67279;DHT22;54193;53.746;10.058;2023-09-30T13:50:31;17.55;73.19
67279;DHT22;54193;53.746;10.058;2023-09-30T13:53:17;17.51;72.86
67279;DHT22;54193;53.746;10.058;2023-09-30T13:56:02;17.44;73.28
67279;DHT22;54193;53.746;10.058;2023-09-30T13:58:51;17.41;73.68
67279;DHT22;54193;53.746;10.058;2023-09-30T14:01:37;17.35;74.15
67279;DHT22;54193;53.746;10.058;2023-09-30T14:04:23;17.42;74.26
67279;DHT22;54193;53.746;10.058;2023-09-30T14:07:08;17.44;74.95
67279;DHT22;54193;53.746;10.058;2023-09-30T14:09:54;17.51;74.87
67279;DHT22;54193;53.746;10.058;2023-09-30T14:12:40;17.62;75.04
67279;DHT22;54193;53.746;10.058;2023-09-30T14:15:25;17.59;74.72
67279;DHT22;54193;53.746;10.058;2023-09-30T14:18:13;17.48;75.06
67279;DHT22;54193;53.746;10.058;2023-09-30T14:21:00;17.45;75.41
67279;DHT22;54193;53.746;10.058;2023-09-30T14:23:46;17.36;75.05
67279;DHT22;54193;53.746;10.058;2023-09-30T14:26:32;17.25;75.54
67279;DHT22;54193;53.746;10.058;2023-09-30T14:29:18;17.23;75.54
67279;DHT22;54193;53.746;10.058;2023-09-30T14:32:04;17.15;75.55
67279;DHT22;54193;53.746;10.058;2023-09-30T14:34:50;17.15;74.94
67279;DHT22;54193;53.746;10.058;2023-09-30T14:37:37;17.17;75.28
67279;DHT22;54193;53.746;10.058;2023-09-30T14:40:22;17.15;75.42
67279;DHT22;54193;53.746;10.058;2023-09-30T14:43:08;17.30;75.44
67279;DHT22;54193;53.746;10.058;2023-09-30T14:45:55;17.30;75.06
67279;DHT22;54193;53.746;10.058;2023-09-30T14:48:40;17.21;75.25
67279;DHT22;54193;53.746;10.058;2023-09-30T14:51:27;17.21;75.42
67279;DHT22;54193;53.746;10.058;2023-09-30T14:54:13;17.23;75.40
67279;DHT22;54193;53.746;10.058;2023-09-30T14:56:59;17.15;75.56
67279;DHT22;54193;53.746;10.058;2023-09-30T14:59:45;17.00;74.99
67279;DHT22;54193;53.746;10.058;2023-09-30T15:02:30;16.94;74.11
67279;DHT22;54193;53.746;10.058;2023-09-30T15:05:16;16.90;74.63
67279;DHT22;54193;53.746;10.058;2023-09-30T15:08:02;16.97;74.50
67279;DHT22;54193;53.746;10.058;2023-09-30T15:10:48;16.97;73.98
67279;DHT22;54193;53.746;10.058;2023-09-30T15:13:33;16.93;73.34
67279;DHT22;54193;53.746;10.058;2023-09-30T15:16:21;16.91;73.50
67279;DHT22;54193;53.746;10.058;2023-09-30T15:19:07;16.83;72.98
67279;DHT22;54193;53.746;10.058;2023-09-30T15:21:52;16.80;73.60
67279;DHT22;54193;53.746;10.058;2023-09-30T15:24:38;16.73;75.04
67279;DHT22;54193;53.746;10.058;2023-09-30T15:27:23;16.66;74.92
67279;DHT22;54193;53.746;10.058;2023-09-30T15:30:10;16.59;75.95
67279;DHT22;54193;53.746;10.058;2023-09-30T15:32:56;16.44;75.79
67279;DHT22;54193;53.746;10.058;2023-09-30T15:35:43;16.33;77.15
67279;DHT22;54193;53.746;10.058;2023-09-30T15:38:28;16.24;77.32
67279;DHT22;54193;53.746;10.058;2023-09-30T15:41:15;16.15;77.43
67279;DHT22;54193;53.746;10.058;2023-09-30T15:44:01;16.05;78.04
67279;DHT22;54193;53.746;10.058;2023-09-30T15:46:46;16.00;78.77
67279;DHT22;54193;53.746;10.058;2023-09-30T15:49:33;16.00;78.49
67279;DHT22;54193;53.746;10.058;2023-09-30T15:52:19;15.94;79.51
67279;DHT22;54193;53.746;10.058;2023-09-30T15:55:05;15.91;78.64
67279;DHT22;54193;53.746;10.058;2023-09-30T15:57:51;15.90;79.21
67279;DHT22;54193;53.746;10.058;2023-09-30T16:00:37;15.87;80.24
67279;DHT22;54193;53.746;10.058;2023-09-30T16:03:23;15.87;79.90
67279;DHT22;54193;53.746;10.058;2023-09-30T16:06:09;15.84;79.93
67279;DHT22;54193;53.746;10.058;2023-09-30T16:08:55;15.84;80.61
67279;DHT22;54193;53.746;10.058;2023-09-30T16:11:41;15.77;80.33
67279;DHT22;54193;53.746;10.058;2023-09-30T16:14:28;15.73;80.02
67279;DHT22;54193;53.746;10.058;2023-09-30T16:17:13;15.65;81.18
67279;DHT22;54193;53.746;10.058;2023-09-30T16:19:59;15.67;80.52
67279;DHT22;54193;53.746;10.058;2023-09-30T16:22:44;15.65;80.47
67279;DHT22;54193;53.746;10.058;2023-09-30T16:25:30;15.56;80.92
67279;DHT22;54193;53.746;10.058;2023-09-30T16:28:16;15.45;81.42
67279;DHT22;54193;53.746;10.058;2023-09-30T16:31:01;15.39;82.17
67279;DHT22;54193;53.746;10.058;2023-09-30T16:33:48;15.34;82.24
67279;DHT22;54193;53.746;10.058;2023-09-30T16:36:34;15.27;82.44
67279;DHT22;54193;53.746;10.058;2023-09-30T16:39:20;15.24;82.98
67279;DHT22;54193;53.746;10.058;2023-09-30T16:42:05;15.18;82.88
67279;DHT22;54193;53.746;10.058;2023-09-30T16:44:51;15.14;83.13
67279;DHT22;54193;53.746;10.058;2023-09-30T16:47:44;15.14;83.55
67279;DHT22;54193;53.746;10.058;2023-09-30T16:50:29;15.14;83.65
67279;DHT22;54193;53.746;10.058;2023-09-30T16:53:15;15.10;83.97
67279;DHT22;54193;53.746;10.058;2023-09-30T16:56:02;15.04;83.78
67279;DHT22;54193;53.746;10.058;2023-09-30T16:58:48;14.98;84.18
67279;DHT22;54193;53.746;10.058;2023-09-30T17:01:34;14.87;84.73
67279;DHT22;54193;53.746;10.058;2023-09-30T17:04:22;14.80;85.10
67279;DHT22;54193;53.746;10.058;2023-09-30T17:07:08;14.69;85.50
67279;DHT22;54193;53.746;10.058;2023-09-30T17:09:54;14.67;85.84
67279;DHT22;54193;53.746;10.058;2023-09-30T17:12:40;14.67;85.95
67279;DHT22;54193;53.746;10.058;2023-09-30T17:15:25;14.60;86.31
67279;DHT22;54193;53.746;10.058;2023-09-30T17:18:11;14.56;86.60
67279;DHT22;54193;53.746;10.058;2023-09-30T17:20:57;14.52;86.89
67279;DHT22;54193;53.746;10.058;2023-09-30T17:23:43;14.49;87.14
67279;DHT22;54193;53.746;10.058;2023-09-30T17:26:28;14.47;87.21
67279;DHT22;54193;53.746;10.058;2023-09-30T17:29:14;14.47;87.34